Time;durP1;ratioP1;P1;durP2;ratioP2;P2;SDS_P1;SDS_P2;PMS_P1;PMS_P2;Temp;Humidity;BMP_temperature;BMP_pressure;BME280_temperature;BME280_humidity;BME280_pressure;Samples;Min_cycle;Max_cycle;Signal;HPM_P1;HPM_P2
2022/11/29 00:02:16;;;;;;;26.60;20.75;;;;;;;6.46;100.00;101312.56;5112305;28;20031;-59
2022/11/29 00:04:41;;;;;;;23.23;20.10;;;;;;;6.45;100.00;101307.34;5091558;28;20036;-59
2022/11/29 00:07:06;;;;;;;26.45;20.30;;;;;;;6.47;100.00;101308.13;5105806;28;20069;-58
2022/11/29 00:09:32;;;;;;;30.65;20.90;;;;;;;6.46;100.00;101309.91;5073989;28;20395;-59
2022/11/29 00:12:12;;;;;;;27.70;19.75;;;;;;;6.33;100.00;101303.41;5104542;28;20493;-59
2022/11/29 00:14:38;;;;;;;30.83;20.85;;;;;;;6.35;100.00;101301.53;5095066;28;20106;-59
2022/11/29 00:17:04;;;;;;;28.40;20.73;;;;;;;6.42;100.00;101312.75;5124964;27;20042;-59
2022/11/29 00:19:32;;;;;;;25.73;20.30;;;;;;;6.42;100.00;101310.97;5092630;28;20036;-58
2022/11/29 00:21:58;;;;;;;24.60;19.80;;;;;;;6.43;100.00;101320.59;5093182;28;20028;-59
2022/11/29 00:24:24;;;;;;;23.75;20.08;;;;;;;6.42;100.00;101318.88;5114878;27;20482;-59
2022/11/29 00:26:49;;;;;;;22.77;19.88;;;;;;;6.37;100.00;101312.91;5087514;28;20033;-59
2022/11/29 00:29:15;;;;;;;26.83;20.77;;;;;;;6.35;100.00;101312.09;5103579;28;20038;-59
2022/11/29 00:31:42;;;;;;;32.92;21.00;;;;;;;6.35;100.00;101323.56;5094282;28;20078;-59
2022/11/29 00:34:11;;;;;;;27.05;21.38;;;;;;;6.37;100.00;101319.03;5112362;28;20070;-59
2022/11/29 00:36:37;;;;;;;24.67;19.80;;;;;;;6.41;100.00;101319.78;5104759;28;20043;-59
2022/11/29 00:39:03;;;;;;;27.13;19.75;;;;;;;6.37;100.00;101326.13;5083669;28;20024;-59
2022/11/29 00:41:29;;;;;;;25.35;19.75;;;;;;;6.36;100.00;101325.25;5107304;28;20128;-59
2022/11/29 00:43:55;;;;;;;22.15;19.75;;;;;;;6.40;100.00;101317.22;5103707;28;20486;-59
2022/11/29 00:46:21;;;;;;;22.48;20.10;;;;;;;6.44;100.00;101324.97;5110810;28;20027;-59
2022/11/29 00:48:46;;;;;;;23.40;19.65;;;;;;;6.42;100.00;101320.66;5112221;28;20023;-59
2022/11/29 00:51:12;;;;;;;27.15;20.38;;;;;;;6.38;100.00;101314.63;5112525;28;20108;-59
2022/11/29 00:53:38;;;;;;;21.38;19.10;;;;;;;6.42;100.00;101318.88;5112064;28;20028;-60
2022/11/29 00:56:04;;;;;;;25.45;20.77;;;;;;;6.31;100.00;101323.72;5110493;28;20028;-59
2022/11/29 00:58:31;;;;;;;28.75;20.60;;;;;;;6.29;100.00;101320.25;5091804;28;20111;-59
2022/11/29 01:00:56;;;;;;;27.15;21.30;;;;;;;6.33;100.00;101317.47;5092172;28;20020;-59
2022/11/29 01:03:22;;;;;;;23.17;19.33;;;;;;;6.28;100.00;101300.91;5092124;28;20043;-59
2022/11/29 01:05:48;;;;;;;26.30;20.83;;;;;;;6.37;100.00;101316.41;5090700;28;20383;-59
2022/11/29 01:08:14;;;;;;;25.75;20.45;;;;;;;6.30;100.00;101322.84;5107462;28;20560;-59
2022/11/29 01:10:40;;;;;;;24.42;20.33;;;;;;;6.34;100.00;101313.88;5112519;28;20023;-59
2022/11/29 01:13:08;;;;;;;24.15;19.35;;;;;;;6.33;100.00;101320.09;5112397;28;20026;-59
2022/11/29 01:15:34;;;;;;;21.73;18.30;;;;;;;6.31;100.00;101323.72;5110104;28;20039;-59
2022/11/29 01:18:03;;;;;;;23.48;19.88;;;;;;;6.29;100.00;101321.13;5110407;28;20032;-59
2022/11/29 01:20:28;;;;;;;25.70;20.10;;;;;;;6.32;100.00;101328.94;5112057;28;20394;-59
2022/11/29 01:22:53;;;;;;;32.05;22.33;;;;;;;6.35;100.00;101334.13;5110259;28;20027;-59
2022/11/29 01:25:19;;;;;;;26.98;20.05;;;;;;;6.31;100.00;101332.50;5110826;28;20432;-59
2022/11/29 01:27:45;;;;;;;29.00;22.08;;;;;;;6.28;100.00;101337.88;5100058;28;20046;-58
2022/11/29 01:30:11;;;;;;;43.10;24.02;;;;;;;6.19;100.00;101330.31;5110546;28;20040;-59
2022/11/29 01:32:37;;;;;;;31.95;23.30;;;;;;;6.20;100.00;101334.66;5109946;28;20386;-59
2022/11/29 01:35:04;;;;;;;29.40;21.90;;;;;;;6.14;100.00;101335.75;5111890;28;20502;-59
2022/11/29 01:37:29;;;;;;;33.13;22.60;;;;;;;6.10;100.00;101328.00;5102350;28;20028;-59
2022/11/29 01:39:55;;;;;;;31.58;22.92;;;;;;;6.18;100.00;101335.63;5091031;28;20036;-59
2022/11/29 01:42:21;;;;;;;26.60;21.20;;;;;;;6.21;100.00;101336.41;5091711;28;20402;-59
2022/11/29 01:45:21;;;;;;;33.55;22.90;;;;;;;6.28;100.00;101356.38;5091389;28;20020;-59
2022/11/29 01:47:51;;;;;;;30.58;22.10;;;;;;;6.25;100.00;101353.84;5092186;28;20048;-59
2022/11/29 01:50:17;;;;;;;;;;;;;;;6.40;100.00;101355.06;5092556;28;20031;-59
2022/11/29 01:52:43;;;;;;;30.60;21.77;;;;;;;6.28;100.00;101360.81;5090921;28;19912;-59
2022/11/29 01:55:11;;;;;;;35.67;23.58;;;;;;;6.30;100.00;101358.97;5091606;28;20024;-59
2022/11/29 01:57:40;;;;;;;41.38;25.08;;;;;;;6.29;100.00;101365.16;5103251;28;20039;-59
2022/11/29 02:00:10;;;;;;;38.58;25.42;;;;;;;6.26;100.00;101360.00;5112038;28;20054;-59
2022/11/29 02:03:09;;;;;;;38.33;25.70;;;;;;;6.35;100.00;101370.22;5112113;28;20091;-59
2022/11/29 02:05:37;;;;;;;41.07;25.70;;;;;;;6.30;100.00;101369.53;5091310;28;20032;-58
2022/11/29 02:08:04;;;;;;;36.23;27.00;;;;;;;6.30;100.00;101382.75;5095934;28;20040;-59
2022/11/29 02:11:08;;;;;;;35.88;25.17;;;;;;;6.28;100.00;101384.59;5092230;28;20024;-59
2022/11/29 02:14:08;;;;;;;44.13;26.10;;;;;;;6.27;100.00;101381.09;5095317;28;20020;-59
2022/11/29 02:17:09;;;;;;;39.38;25.17;;;;;;;6.26;100.00;101381.97;5100738;28;20015;-59
2022/11/29 02:19:43;;;;;;;48.55;27.27;;;;;;;6.23;100.00;101383.88;5111491;28;20150;-59
2022/11/29 02:22:19;;;;;;;45.70;26.17;;;;;;;6.19;100.00;101383.13;5115311;28;20031;-59
2022/11/29 02:24:54;;;;;;;56.47;26.50;;;;;;;6.18;100.00;101396.38;5072002;28;20107;-59
2022/11/29 02:27:30;;;;;;;94.45;25.48;;;;;;;6.16;100.00;101392.94;5085601;28;20023;-59
2022/11/29 02:30:01;;;;;;;74.55;25.60;;;;;;;6.10;100.00;101380.84;5094558;28;20091;-58
2022/11/29 02:32:38;;;;;;;72.00;25.73;;;;;;;6.11;100.00;101388.69;5096478;28;20089;-59
2022/11/29 02:35:25;;;;;;;63.13;24.83;;;;;;;6.10;100.00;101383.47;5094534;28;20490;-59
2022/11/29 02:38:09;;;;;;;53.45;25.85;;;;;;;6.13;100.00;101381.56;5102229;28;20482;-59
2022/11/29 02:40:49;;;;;;;69.43;25.27;;;;;;;6.06;100.00;101384.47;5094143;28;20036;-59
2022/11/29 02:43:20;;;;;;;;;;;;;;;6.20;100.00;101378.72;5101417;28;20031;-59
2022/11/29 02:45:52;;;;;;;28.00;25.05;;;;;;;6.17;100.00;101378.81;5092219;28;19915;-59
2022/11/29 02:48:38;;;;;;;75.10;26.40;;;;;;;6.11;100.00;101388.69;5097525;28;20056;-59
2022/11/29 02:51:15;;;;;;;40.67;25.70;;;;;;;6.08;100.00;101378.22;5098323;28;20487;-59
2022/11/29 02:53:50;;;;;;;45.28;23.85;;;;;;;6.11;100.00;101382.53;5094152;28;20024;-59
2022/11/29 02:56:33;;;;;;;46.90;23.80;;;;;;;6.08;100.00;101387.94;5101000;28;20110;-59
2022/11/29 02:59:38;;;;;;;31.13;22.67;;;;;;;6.12;100.00;101395.72;5072529;28;20115;-59
2022/11/29 03:02:33;;;;;;;28.55;22.85;;;;;;;6.04;100.00;101395.09;5102469;28;20032;-59
2022/11/29 03:05:13;;;;;;;26.73;23.90;;;;;;;6.04;100.00;101405.66;5113585;28;20043;-59
2022/11/29 03:08:02;;;;;;;28.95;23.05;;;;;;;6.03;100.00;101401.31;5098302;28;20067;-59
2022/11/29 03:10:41;;;;;;;25.40;22.25;;;;;;;5.97;100.00;101396.25;5093945;28;20024;-59
2022/11/29 03:13:19;;;;;;;30.90;22.75;;;;;;;5.91;100.00;101404.31;5122756;27;20485;-59
2022/11/29 03:15:57;;;;;;;27.52;22.10;;;;;;;5.91;100.00;101401.69;5105243;28;20027;-59
2022/11/29 03:18:40;;;;;;;23.65;21.08;;;;;;;5.92;100.00;101414.00;5113380;28;20398;-59
2022/11/29 03:21:15;;;;;;;24.27;21.67;;;;;;;5.90;100.00;101414.03;5094068;28;20027;-59
2022/11/29 03:23:49;;;;;;;23.13;20.80;;;;;;;5.89;100.00;101419.38;5093226;28;20047;-59
2022/11/29 03:26:17;;;;;;;26.80;21.90;;;;;;;5.83;100.00;101415.16;5093830;28;20024;-59
2022/11/29 03:29:06;;;;;;;40.05;21.42;;;;;;;5.84;100.00;101419.53;5093643;28;20391;-59
2022/11/29 03:31:39;;;;;;;25.92;21.90;;;;;;;5.81;100.00;101421.41;5112193;27;20415;-59
2022/11/29 03:34:23;;;;;;;30.55;21.77;;;;;;;5.83;100.00;101425.72;5073328;28;20457;-59
2022/11/29 03:36:57;;;;;;;28.98;21.60;;;;;;;5.80;100.00;101422.34;5073393;28;20416;-59
2022/11/29 03:39:42;;;;;;;31.25;21.58;;;;;;;5.78;100.00;101429.44;5092309;28;20024;-59
2022/11/29 03:42:41;;;;;;;26.67;22.05;;;;;;;5.78;100.00;101430.28;5083664;28;20036;-59
2022/11/29 03:45:17;;;;;;;35.15;22.48;;;;;;;5.68;100.00;101435.03;5091059;28;20099;-58
2022/11/29 03:48:08;;;;;;;38.80;21.83;;;;;;;5.69;100.00;101431.47;5099131;28;20377;-58
2022/11/29 03:50:43;;;;;;;63.03;21.95;;;;;;;5.60;100.00;101433.56;5063169;28;20027;-59
2022/11/29 03:53:34;;;;;;;45.38;21.30;;;;;;;5.62;100.00;101443.16;5111962;28;20026;-58
2022/11/29 03:56:02;;;;;;;49.80;21.40;;;;;;;5.59;100.00;101439.72;5063724;28;20040;-58
2022/11/29 03:58:54;;;;;;;61.67;22.83;;;;;;;5.62;100.00;101450.22;5072564;28;20491;-58
2022/11/29 04:01:20;;;;;;;53.65;21.60;;;;;;;5.53;100.00;101450.47;5097134;28;20020;-59
2022/11/29 04:04:13;;;;;;;45.50;21.30;;;;;;;5.54;100.00;101455.72;5091771;28;20027;-59
2022/11/29 04:07:09;;;;;;;43.38;21.25;;;;;;;5.55;100.00;101451.31;5084070;28;20024;-61
2022/11/29 04:10:04;;;;;;;51.65;23.00;;;;;;;5.56;100.00;101453.91;5073812;28;20055;-59
2022/11/29 04:12:48;;;;;;;48.15;21.10;;;;;;;5.56;100.00;101463.56;5092912;28;20027;-58
2022/11/29 04:15:16;;;;;;;59.97;22.27;;;;;;;5.51;100.00;101474.28;5092077;28;20471;-59
2022/11/29 04:17:50;;;;;;;52.90;23.25;;;;;;;5.54;100.00;101468.06;5083788;28;20033;-59
2022/11/29 04:20:44;;;;;;;52.50;20.90;;;;;;;5.54;100.00;101463.63;5085232;28;20395;-58
2022/11/29 04:23:41;;;;;;;65.97;24.02;;;;;;;5.56;100.00;101467.09;5071615;28;20082;-58
2022/11/29 04:26:43;;;;;;;49.17;21.13;;;;;;;5.57;100.00;101475.88;5072504;28;20028;-58
2022/11/29 04:29:41;;;;;;;43.63;21.15;;;;;;;5.53;100.00;101474.22;5071628;28;20033;-59
2022/11/29 04:32:27;;;;;;;60.67;21.02;;;;;;;5.46;100.00;101469.16;5078400;28;20165;-59
2022/11/29 04:35:02;;;;;;;43.22;21.25;;;;;;;5.52;100.00;101472.50;5091874;28;20118;-59
2022/11/29 04:37:55;;;;;;;44.70;19.58;;;;;;;5.47;100.00;101468.25;5090909;28;20479;-59
2022/11/29 04:40:40;;;;;;;47.58;20.20;;;;;;;5.40;100.00;101471.97;5099720;27;20029;-58
2022/11/29 04:43:54;;;;;;;43.90;20.73;;;;;;;5.43;100.00;101477.16;5080505;28;20024;-58
2022/11/29 04:47:07;;;;;;;40.50;19.73;;;;;;;5.38;100.00;101476.47;5082010;28;20032;-59
2022/11/29 04:49:51;;;;;;;39.72;19.88;;;;;;;5.38;100.00;101483.47;5017416;28;20120;-58
2022/11/29 04:52:34;;;;;;;46.25;21.27;;;;;;;5.33;100.00;101480.16;5029104;28;20030;-59
2022/11/29 04:55:41;;;;;;;40.42;20.15;;;;;;;5.39;100.00;101483.44;5082164;28;20052;-59
2022/11/29 04:58:25;;;;;;;30.40;19.05;;;;;;;5.41;100.00;101486.03;5052243;28;20060;-59
2022/11/29 05:01:13;;;;;;;39.30;20.13;;;;;;;5.37;100.00;101492.31;5071417;28;20380;-59
2022/11/29 05:04:01;;;;;;;34.45;19.83;;;;;;;5.36;100.00;101496.75;5071928;28;20036;-59
2022/11/29 05:06:26;;;;;;;30.33;19.95;;;;;;;5.39;100.00;101499.28;5111877;28;20486;-58
2022/11/29 05:09:09;;;;;;;26.45;19.17;;;;;;;5.43;100.00;101506.19;5111634;28;20034;-59
2022/11/29 05:11:52;;;;;;;31.40;20.25;;;;;;;5.33;100.00;101507.38;5112186;28;20118;-59
2022/11/29 05:14:44;;;;;;;25.98;19.17;;;;;;;5.39;100.00;101511.59;5105355;28;20035;-59
2022/11/29 05:17:43;;;;;;;30.38;19.23;;;;;;;5.36;100.00;101509.06;5071594;28;20043;-59
2022/11/29 05:20:17;;;;;;;34.50;20.15;;;;;;;5.36;100.00;101522.25;5070984;28;20044;-59
2022/11/29 05:23:24;;;;;;;26.02;19.75;;;;;;;5.41;100.00;101520.31;5071287;28;20025;-59
2022/11/29 05:26:00;;;;;;;24.70;19.35;;;;;;;5.39;100.00;101522.16;5084965;28;20031;-59
2022/11/29 05:28:53;;;;;;;24.92;19.55;;;;;;;5.39;100.00;101530.06;5111908;28;20102;-59
2022/11/29 05:31:55;;;;;;;30.15;20.25;;;;;;;5.45;100.00;101533.38;5110980;28;20051;-59
2022/11/29 05:34:38;;;;;;;34.08;19.42;;;;;;;5.44;100.00;101536.94;5110385;28;20542;-59
2022/11/29 05:37:12;;;;;;;39.50;20.38;;;;;;;5.42;100.00;101538.75;5089844;28;20081;-59
2022/11/29 05:39:50;;;;;;;34.97;20.63;;;;;;;5.37;100.00;101538.03;5091440;28;20016;-59
2022/11/29 05:42:35;;;;;;;38.13;19.13;;;;;;;5.44;100.00;101542.22;5090457;28;20024;-59
2022/11/29 05:45:19;;;;;;;44.83;21.00;;;;;;;5.46;100.00;101544.78;5094461;28;20081;-59
2022/11/29 05:48:16;;;;;;;44.10;20.70;;;;;;;5.51;100.00;101547.31;5103964;28;20023;-59
2022/11/29 05:50:52;;;;;;;37.72;20.33;;;;;;;5.46;100.00;101555.34;5116656;28;20479;-59
2022/11/29 05:53:29;;;;;;;29.88;21.42;;;;;;;5.47;100.00;101560.59;5105838;27;20034;-59
2022/11/29 05:56:13;;;;;;;40.63;20.73;;;;;;;5.51;100.00;101561.34;5097252;28;20069;-59
2022/11/29 05:59:00;;;;;;;37.35;20.23;;;;;;;5.54;100.00;101561.25;5095228;28;20107;-59
2022/11/29 06:01:37;;;;;;;67.57;20.63;;;;;;;5.39;100.00;101551.19;5103216;28;20030;-59
2022/11/29 06:04:12;;;;;;;38.08;20.52;;;;;;;5.43;100.00;101566.84;5090675;28;20070;-59
2022/11/29 06:06:56;;;;;;;52.17;22.38;;;;;;;5.41;100.00;101560.78;5095420;28;20024;-59
2022/11/29 06:09:29;;;;;;;53.60;19.77;;;;;;;5.41;100.00;101566.06;5094667;28;20027;-59
2022/11/29 06:12:01;;;;;;;42.85;19.40;;;;;;;5.40;100.00;101574.84;5093673;28;20107;-59
2022/11/29 06:15:05;;;;;;;34.42;20.30;;;;;;;5.52;100.00;101593.88;5093446;28;20043;-59
2022/11/29 06:17:41;;;;;;;45.58;20.33;;;;;;;5.45;100.00;101595.84;5088508;28;20517;-59
2022/11/29 06:20:40;;;;;;;40.80;20.63;;;;;;;5.44;100.00;101596.72;5096566;28;20028;-58
2022/11/29 06:23:22;;;;;;;29.27;20.55;;;;;;;5.45;100.00;101599.34;5074360;28;20043;-59
2022/11/29 06:25:57;;;;;;;31.08;20.15;;;;;;;5.49;100.00;101604.50;5091364;28;20020;-59
2022/11/29 06:28:32;;;;;;;56.55;22.02;;;;;;;5.45;100.00;101603.75;5103098;28;20028;-59
2022/11/29 06:31:24;;;;;;;71.90;21.25;;;;;;;5.49;100.00;101601.88;5110694;28;20068;-59
2022/11/29 06:33:55;;;;;;;47.65;22.38;;;;;;;5.46;100.00;101603.69;5096940;28;20448;-59
2022/11/29 06:36:43;;;;;;;42.92;22.20;;;;;;;5.48;100.00;101608.94;5087348;28;20518;-59
2022/11/29 06:39:09;;;;;;;34.28;21.70;;;;;;;5.51;100.00;101615.91;5082140;28;20359;-59
2022/11/29 06:41:35;;;;;;;26.83;23.92;;;;;;;5.53;100.00;101617.59;5095744;28;20403;-59
2022/11/29 06:44:01;;;;;;;50.35;22.95;;;;;;;5.53;100.00;101620.22;5126879;27;20047;-59
2022/11/29 06:46:46;;;;;;;80.13;23.63;;;;;;;5.58;100.00;101625.34;5095000;28;20020;-59
2022/11/29 06:49:16;;;;;;;96.03;24.15;;;;;;;5.52;100.00;101620.25;5094229;28;20092;-58
2022/11/29 06:51:51;;;;;;;65.20;24.90;;;;;;;5.60;100.00;101631.44;5094742;28;20541;-59
2022/11/29 06:54:40;;;;;;;75.60;24.80;;;;;;;5.57;100.00;101639.47;5111057;28;20027;-58
2022/11/29 06:57:29;;;;;;;68.85;24.27;;;;;;;5.46;100.00;101630.06;5095535;28;20052;-59
2022/11/29 07:00:11;;;;;;;51.20;23.75;;;;;;;5.64;100.00;101636.56;5093780;28;20059;-59
2022/11/29 07:02:43;;;;;;;31.25;23.15;;;;;;;5.67;100.00;101640.91;5093788;28;20537;-59
2022/11/29 07:05:29;;;;;;;37.88;24.10;;;;;;;5.72;100.00;101640.78;5094115;28;20039;-59
2022/11/29 07:07:59;;;;;;;39.45;24.63;;;;;;;5.60;100.00;101639.38;5094507;28;20024;-59
2022/11/29 07:10:26;;;;;;;37.67;24.15;;;;;;;5.68;100.00;101637.38;5093304;28;20111;-59
2022/11/29 07:12:51;;;;;;;40.05;23.80;;;;;;;5.64;100.00;101648.91;5103291;28;20071;-59
2022/11/29 07:15:20;;;;;;;38.83;24.17;;;;;;;5.63;100.00;101649.81;5102029;28;20089;-58
2022/11/29 07:18:06;;;;;;;32.05;24.45;;;;;;;5.70;100.00;101660.13;5095297;28;20494;-58
2022/11/29 07:21:07;;;;;;;38.10;23.55;;;;;;;5.79;100.00;101655.50;5095930;28;20028;-58
2022/11/29 07:23:44;;;;;;;28.75;23.65;;;;;;;5.76;100.00;101656.44;5010124;28;20034;-59
2022/11/29 07:26:33;;;;;;;30.08;24.17;;;;;;;5.74;100.00;101668.00;5092046;28;20043;-59
2022/11/29 07:29:09;;;;;;;28.77;22.20;;;;;;;5.74;100.00;101671.50;5113242;28;20053;-58
2022/11/29 07:31:48;;;;;;;27.77;22.83;;;;;;;5.75;100.00;101669.72;5114332;28;20293;-58
2022/11/29 07:34:28;;;;;;;26.20;23.38;;;;;;;5.74;100.00;101675.91;5113950;28;20367;-58
2022/11/29 07:37:05;;;;;;;29.85;23.58;;;;;;;5.72;100.00;101680.38;5102847;28;20102;-58
2022/11/29 07:40:00;;;;;;;26.92;23.90;;;;;;;5.70;100.00;101681.25;5085238;28;20020;-59
2022/11/29 07:42:41;;;;;;;26.73;22.60;;;;;;;5.72;100.00;101691.78;5045424;28;20036;-58
2022/11/29 07:45:12;;;;;;;28.67;22.63;;;;;;;5.71;100.00;101687.41;5086531;28;20047;-58
2022/11/29 07:47:38;;;;;;;31.25;22.77;;;;;;;5.74;100.00;101704.94;5071924;28;20036;-58
2022/11/29 07:50:04;;;;;;;29.25;23.30;;;;;;;5.73;100.00;101695.28;5098690;28;20390;-58
2022/11/29 07:52:29;;;;;;;30.63;23.15;;;;;;;5.74;100.00;101697.88;5078588;28;20043;-58
2022/11/29 07:55:03;;;;;;;33.30;23.80;;;;;;;5.74;100.00;101697.88;5084042;28;20441;-58
2022/11/29 07:57:29;;;;;;;29.67;22.67;;;;;;;5.75;100.00;101688.19;5099687;28;20039;-58
2022/11/29 07:59:55;;;;;;;34.28;24.05;;;;;;;5.71;100.00;101692.69;5106167;28;20062;-58
2022/11/29 08:02:30;;;;;;;27.45;23.30;;;;;;;5.76;100.00;101698.69;5099536;28;20102;-59
2022/11/29 08:05:00;;;;;;;33.95;22.75;;;;;;;5.74;100.00;101703.16;5088932;28;20038;-59
2022/11/29 08:07:26;;;;;;;36.45;23.80;;;;;;;5.77;100.00;101697.78;5107152;28;20055;-58
2022/11/29 08:09:51;;;;;;;36.17;24.58;;;;;;;5.66;100.00;101695.47;5097918;28;20070;-58
2022/11/29 08:12:17;;;;;;;36.97;25.42;;;;;;;5.77;100.00;101700.44;5070806;28;20046;-58
2022/11/29 08:14:42;;;;;;;38.28;26.55;;;;;;;5.77;100.00;101697.78;5074059;28;20107;-58
2022/11/29 08:17:08;;;;;;;39.00;25.70;;;;;;;5.77;100.00;101705.72;5089025;28;20032;-59
2022/11/29 08:19:33;;;;;;;41.58;25.17;;;;;;;5.72;100.00;101710.25;5091696;28;20032;-59
2022/11/29 08:21:59;;;;;;;37.55;25.38;;;;;;;5.70;100.00;101712.06;5091799;28;20023;-59
2022/11/29 08:24:25;;;;;;;44.35;26.90;;;;;;;5.72;100.00;101710.25;5069581;28;20024;-59
2022/11/29 08:26:51;;;;;;;42.58;25.75;;;;;;;5.68;100.00;101712.13;5096246;27;20035;-59
2022/11/29 08:29:19;;;;;;;50.70;27.60;;;;;;;5.68;100.00;101712.13;5091326;28;20367;-58
2022/11/29 08:31:44;;;;;;;43.60;27.00;;;;;;;5.64;100.00;101707.81;5092466;28;20548;-58
2022/11/29 08:34:11;;;;;;;41.72;26.83;;;;;;;5.64;100.00;101705.19;5092748;28;20054;-59
2022/11/29 08:36:36;;;;;;;46.80;28.02;;;;;;;5.72;100.00;101718.16;5097358;28;20024;-58
2022/11/29 08:39:03;;;;;;;43.65;27.02;;;;;;;5.70;100.00;101722.63;5089402;28;20039;-58
2022/11/29 08:41:29;;;;;;;48.80;27.40;;;;;;;5.69;100.00;101716.47;5089011;28;20016;-58
2022/11/29 08:43:57;;;;;;;45.10;27.27;;;;;;;5.67;100.00;101720.06;5094916;28;20068;-58
2022/11/29 08:47:34;;;;;;;54.50;26.20;;;;;;;5.63;100.00;101724.56;5098954;28;20028;-58
2022/11/29 08:49:08;;;;;;;56.33;28.52;;;;;;;5.67;100.00;101730.63;5088032;28;20028;-59
2022/11/29 08:51:33;;;;;;;42.42;26.77;;;;;;;5.74;100.00;101728.69;5087550;28;21430;-59
2022/11/29 08:54:01;;;;;;;41.75;27.45;;;;;;;5.74;100.00;101734.84;5092642;28;20506;-59
2022/11/29 08:56:26;;;;;;;52.55;27.73;;;;;;;5.73;100.00;101734.88;5089142;28;20445;-59
2022/11/29 08:58:52;;;;;;;47.78;29.10;;;;;;;5.80;100.00;101736.44;5083182;28;20091;-58
2022/11/29 09:01:18;;;;;;;44.30;29.23;;;;;;;5.81;100.00;101735.53;5095115;28;20038;-59
2022/11/29 09:04:03;;;;;;;47.25;27.30;;;;;;;5.85;100.00;101745.06;5091195;28;20027;-58
2022/11/29 09:06:40;;;;;;;44.58;27.73;;;;;;;5.89;100.00;101736.16;5097644;28;20560;-58
2022/11/29 09:09:07;;;;;;;53.88;30.13;;;;;;;5.94;100.00;101747.47;5100417;28;20490;-58
2022/11/29 09:11:35;;;;;;;60.83;31.85;;;;;;;5.90;100.00;101736.09;5088352;28;20119;-59
2022/11/29 09:14:03;;;;;;;69.05;29.70;;;;;;;5.93;100.00;101745.75;5101111;28;20176;-58
2022/11/29 09:16:32;;;;;;;74.72;31.20;;;;;;;5.94;100.00;101752.75;5091013;28;20055;-59
2022/11/29 09:18:58;;;;;;;77.68;30.73;;;;;;;5.98;100.00;101758.84;5098670;28;20027;-59
2022/11/29 09:21:25;;;;;;;63.00;30.42;;;;;;;5.96;100.00;101748.28;5087881;28;20750;-59
2022/11/29 09:23:58;;;;;;;62.92;30.20;;;;;;;5.99;100.00;101750.00;5088747;28;20070;-60
2022/11/29 09:26:32;;;;;;;66.28;31.20;;;;;;;6.02;100.00;101750.75;5090090;28;20111;-60
2022/11/29 09:29:00;;;;;;;63.40;31.52;;;;;;;6.09;100.00;101768.16;5091345;28;20027;-59
2022/11/29 09:31:26;;;;;;;80.60;30.85;;;;;;;6.09;100.00;101764.66;5089558;28;20079;-59
2022/11/29 09:33:55;;;;;;;74.32;30.80;;;;;;;6.14;100.00;101768.00;5091951;28;20028;-59
2022/11/29 09:36:21;;;;;;;63.90;30.65;;;;;;;6.17;100.00;101773.19;5091593;28;20542;-59
2022/11/29 09:38:47;;;;;;;75.55;32.28;;;;;;;6.23;100.00;101782.72;5102529;28;20457;-59
2022/11/29 09:41:24;;;;;;;70.72;31.25;;;;;;;6.21;100.00;101780.16;5112101;28;20027;-59
2022/11/29 09:44:08;;;;;;;71.07;31.02;;;;;;;6.23;100.00;101786.22;5109095;28;20034;-59
2022/11/29 09:46:51;;;;;;;76.45;30.63;;;;;;;6.25;100.00;101792.34;5091600;28;20023;-59
2022/11/29 09:49:48;;;;;;;70.72;31.30;;;;;;;6.32;100.00;101791.25;5104362;28;20023;-60
2022/11/29 09:52:47;;;;;;;61.55;30.08;;;;;;;6.36;100.00;101787.59;5111715;28;20027;-60
2022/11/29 09:55:43;;;;;;;80.15;32.75;;;;;;;6.40;100.00;101791.00;5111836;28;20035;-60
2022/11/29 09:58:16;;;;;;;67.28;32.28;;;;;;;6.40;100.00;101796.28;5102757;28;20093;-60
2022/11/29 10:00:48;;;;;;;75.05;32.20;;;;;;;6.43;100.00;101793.56;5091464;28;20471;-59
2022/11/29 10:03:24;;;;;;;53.97;27.75;;;;;;;6.43;100.00;101797.97;5091054;28;20024;-59
2022/11/29 10:05:56;;;;;;;64.47;29.50;;;;;;;6.45;100.00;101804.09;5090988;28;20432;-59
2022/11/29 10:08:44;;;;;;;61.42;29.90;;;;;;;6.49;100.00;101801.28;5096706;28;20489;-59
2022/11/29 10:11:15;;;;;;;52.40;28.20;;;;;;;6.55;100.00;101806.38;5111622;28;20389;-59
2022/11/29 10:13:48;;;;;;;60.28;28.65;;;;;;;6.58;100.00;101798.34;5107297;28;20024;-59
2022/11/29 10:16:21;;;;;;;51.17;26.58;;;;;;;6.55;100.00;101790.53;5089334;28;20403;-59
2022/11/29 10:19:24;;;;;;;50.63;25.73;;;;;;;6.64;100.00;101797.31;5096739;28;20028;-59
2022/11/29 10:22:04;;;;;;;54.92;27.40;;;;;;;6.60;100.00;101793.91;5084149;28;20019;-59
2022/11/29 10:24:32;;;;;;;77.25;27.50;;;;;;;6.57;100.00;101794.00;5092844;28;20028;-59
2022/11/29 10:26:58;;;;;;;56.90;27.10;;;;;;;6.58;100.00;101789.56;5091294;28;20032;-59
2022/11/29 10:29:23;;;;;;;69.32;27.67;;;;;;;6.56;100.00;101792.28;5089919;28;20116;-59
2022/11/29 10:31:55;;;;;;;53.97;27.67;;;;;;;6.62;100.00;101795.63;5097941;28;20384;-59
2022/11/29 10:34:25;;;;;;;59.30;29.02;;;;;;;6.62;100.00;101790.34;5092035;28;20032;-59
2022/11/29 10:36:58;;;;;;;54.25;28.65;;;;;;;6.63;100.00;101792.94;5097816;28;20478;-59
2022/11/29 10:39:53;;;;;;;50.92;27.40;;;;;;;6.70;100.00;101789.19;5098364;28;20028;-60
2022/11/29 10:45:19;;;;;;;56.05;28.60;;;;;;;6.67;100.00;101791.06;5107440;28;20100;-59
2022/11/29 10:47:47;;;;;;;53.42;28.50;;;;;;;6.67;100.00;101797.22;5103463;28;20028;-59
2022/11/29 10:50:20;;;;;;;71.97;30.30;;;;;;;6.66;100.00;101790.19;5074088;28;20016;-59
2022/11/29 10:52:45;;;;;;;67.45;30.38;;;;;;;6.67;100.00;101791.91;5090499;28;20475;-60
2022/11/29 10:55:15;;;;;;;67.85;29.65;;;;;;;6.72;100.00;101792.66;5093624;28;20031;-59
2022/11/29 10:58:08;;;;;;;86.60;29.88;;;;;;;6.74;100.00;101797.91;5101289;28;20318;-59
2022/11/29 11:00:56;;;;;;;68.45;31.00;;;;;;;6.73;100.00;101797.00;5104795;28;20043;-59
2022/11/29 11:03:32;;;;;;;70.38;30.55;;;;;;;6.64;100.00;101794.66;5113029;28;20493;-59
2022/11/29 11:06:21;;;;;;;69.80;30.98;;;;;;;6.68;100.00;101798.97;5114836;28;20035;-59
2022/11/29 11:08:54;;;;;;;81.80;30.70;;;;;;;6.68;100.00;101798.09;5098631;28;20502;-59
2022/11/29 11:11:25;;;;;;;72.43;29.27;;;;;;;6.63;100.00;101797.38;5094102;28;20102;-59
2022/11/29 11:14:22;;;;;;;58.20;30.13;;;;;;;6.71;100.00;101795.34;5093851;28;20113;-59
2022/11/29 11:16:48;;;;;;;71.75;29.17;;;;;;;6.67;100.00;101799.00;5084663;28;20036;-60
2022/11/29 11:19:24;;;;;;;73.25;27.65;;;;;;;6.67;100.00;101796.34;5092006;28;20425;-59
2022/11/29 11:21:50;;;;;;;60.67;27.98;;;;;;;6.59;100.00;101792.19;5089060;28;20031;-59
2022/11/29 11:24:30;;;;;;;57.75;28.85;;;;;;;6.64;100.00;101799.94;5076732;28;20036;-59
2022/11/29 11:26:59;;;;;;;56.40;29.08;;;;;;;6.57;100.00;101793.13;5085701;28;20032;-60
2022/11/29 11:29:30;;;;;;;71.45;30.20;;;;;;;6.59;100.00;101805.41;5093549;28;20047;-60
2022/11/29 11:31:57;;;;;;;73.05;31.13;;;;;;;6.55;100.00;101809.03;5093285;28;20126;-60
2022/11/29 11:34:24;;;;;;;75.63;30.85;;;;;;;6.62;100.00;101807.09;5093368;28;20028;-60
2022/11/29 11:36:49;;;;;;;68.78;30.88;;;;;;;6.71;100.00;101809.44;5091691;28;20028;-59
2022/11/29 11:39:26;;;;;;;61.08;30.00;;;;;;;6.70;100.00;101812.13;5092801;28;20028;-60
2022/11/29 11:44:48;;;;;;;55.30;32.03;;;;;;;6.74;100.00;101814.63;5093868;28;20520;-60
2022/11/29 11:47:20;;;;;;;75.28;31.55;;;;;;;6.71;100.00;101819.16;5091312;28;20027;-60
2022/11/29 11:49:52;;;;;;;68.28;30.80;;;;;;;6.67;100.00;101821.00;5093391;28;20023;-59
2022/11/29 11:52:22;;;;;;;60.67;30.60;;;;;;;6.67;100.00;101821.00;5093316;28;20027;-59
2022/11/29 11:54:53;;;;;;;67.13;31.40;;;;;;;6.57;100.00;101816.94;5092229;28;20478;-59
2022/11/29 11:57:21;;;;;;;65.40;32.10;;;;;;;6.53;100.00;101805.59;5072876;28;20107;-59